Time;durP1;ratioP1;P1;durP2;ratioP2;P2;SDS_P1;SDS_P2;PMS_P1;PMS_P2;Temp;Humidity;BMP_temperature;BMP_pressure;BME280_temperature;BME280_humidity;BME280_pressure;Samples;Min_cycle;Max_cycle;Signal;HPM_P1;HPM_P2
2022/06/03 00:01:52;;;;;;;6.15;4.80;;;;;;;;;;5033259;28;20026;-55
2022/06/03 00:04:42;;;;;;;7.18;4.53;;;;;;;;;;5027560;28;20041;-54
2022/06/03 00:07:23;;;;;;;7.07;4.80;;;;;;;;;;5018953;28;20059;-56
2022/06/03 00:10:05;;;;;;;;;;;;;;;;;;5029237;28;20044;-52
2022/06/03 00:12:30;;;;;;;8.00;5.00;;;;;;;;;;5030691;28;19940;-54
2022/06/03 00:15:14;;;;;;;8.25;5.00;;;;;;;;;;5030551;28;20440;-56
2022/06/03 00:18:02;;;;;;;7.78;5.50;;;;;;;;;;5032455;28;20054;-55
2022/06/03 00:20:57;;;;;;;7.93;5.18;;;;;;;;;;5019627;28;20071;-57
2022/06/03 00:23:44;;;;;;;7.80;5.57;;;;;;;;;;5028824;28;20033;-55
2022/06/03 00:26:25;;;;;;;7.35;5.35;;;;;;;;;;5028759;28;20095;-54
2022/06/03 00:28:58;;;;;;;;;;;;;;;;;;5028809;28;20051;-58
2022/06/03 00:31:33;;;;;;;7.63;5.38;;;;;;;;;;5027608;28;20018;-56
2022/06/03 00:34:32;;;;;;;7.78;5.70;;;;;;;;;;5028526;28;20030;-55
2022/06/03 00:37:28;;;;;;;7.25;5.32;;;;;;;;;;5024490;28;20036;-53
2022/06/03 00:40:21;;;;;;;9.23;5.60;;;;;;;;;;5017135;28;20061;-57
2022/06/03 00:43:02;;;;;;;7.38;5.32;;;;;;;;;;5023533;28;20056;-55
2022/06/03 00:45:46;;;;;;;7.65;5.75;;;;;;;;;;5029493;28;20033;-56
2022/06/03 00:48:30;;;;;;;6.45;5.53;;;;;;;;;;5026737;28;20033;-57
2022/06/03 00:51:19;;;;;;;6.97;5.45;;;;;;;;;;5029133;28;20041;-58
2022/06/03 00:54:16;;;;;;;8.23;5.70;;;;;;;;;;5023201;28;20045;-57
2022/06/03 00:57:05;;;;;;;7.82;5.65;;;;;;;;;;5024537;28;20490;-57
2022/06/03 00:59:53;;;;;;;7.15;5.78;;;;;;;;;;5023774;28;20083;-57
2022/06/03 01:02:52;;;;;;;8.43;5.50;;;;;;;;;;5028260;28;20108;-58
2022/06/03 01:05:42;;;;;;;7.50;5.72;;;;;;;;;;5020783;28;20025;-56
2022/06/03 01:08:43;;;;;;;9.25;6.07;;;;;;;;;;5028094;28;20120;-57
2022/06/03 01:11:27;;;;;;;8.13;6.03;;;;;;;;;;4971554;28;20125;-57
2022/06/03 01:14:20;;;;;;;7.28;5.13;;;;;;;;;;5020485;28;20041;-59
2022/06/03 01:17:22;;;;;;;8.18;5.80;;;;;;;;;;5030678;28;20063;-54
2022/06/03 01:20:02;;;;;;;7.07;5.65;;;;;;;;;;5010606;28;20489;-57
2022/06/03 01:22:58;;;;;;;7.15;5.85;;;;;;;;;;5031099;28;20123;-57
2022/06/03 01:25:41;;;;;;;7.35;5.63;;;;;;;;;;5029377;28;20537;-53
2022/06/03 01:28:57;;;;;;;7.30;5.90;;;;;;;;;;5009578;28;20470;-57
2022/06/03 01:31:58;;;;;;;8.50;5.85;;;;;;;;;;5030147;28;20079;-56
2022/06/03 01:34:31;;;;;;;8.88;5.75;;;;;;;;;;4938645;29;20120;-57
2022/06/03 01:37:18;;;;;;;9.35;6.10;;;;;;;;;;5014125;28;20073;-57
2022/06/03 01:40:01;;;;;;;8.52;6.20;;;;;;;;;;5030637;28;20104;-55
2022/06/03 01:42:51;;;;;;;10.10;5.85;;;;;;;;;;5030788;28;20033;-57
2022/06/03 01:45:27;;;;;;;8.15;6.13;;;;;;;;;;5028266;28;20050;-55
2022/06/03 01:48:10;;;;;;;8.27;6.03;;;;;;;;;;5030372;28;20512;-54
2022/06/03 01:50:44;;;;;;;8.15;6.20;;;;;;;;;;5012372;28;20478;-54
2022/06/03 01:53:15;;;;;;;8.93;6.35;;;;;;;;;;5029661;28;20030;-51
2022/06/03 01:55:58;;;;;;;8.35;6.35;;;;;;;;;;5028890;28;20049;-56
2022/06/03 01:58:49;;;;;;;7.95;6.40;;;;;;;;;;5028996;28;20033;-54
2022/06/03 02:01:30;;;;;;;9.32;6.00;;;;;;;;;;5029717;28;20501;-59
2022/06/03 02:04:21;;;;;;;8.57;6.13;;;;;;;;;;5007341;28;20110;-54
2022/06/03 02:07:12;;;;;;;9.50;6.43;;;;;;;;;;5027897;28;20195;-53
2022/06/03 02:10:04;;;;;;;8.15;6.15;;;;;;;;;;5035838;28;20017;-57
2022/06/03 02:12:29;;;;;;;8.88;6.30;;;;;;;;;;5015425;28;20132;-55
2022/06/03 02:15:06;;;;;;;9.75;6.70;;;;;;;;;;5032089;28;20105;-56
2022/06/03 02:17:43;;;;;;;10.38;6.47;;;;;;;;;;5032289;28;20038;-55
2022/06/03 02:20:20;;;;;;;8.45;6.97;;;;;;;;;;5033940;28;20116;-59
2022/06/03 02:22:52;;;;;;;8.95;6.85;;;;;;;;;;5034028;28;20068;-55
2022/06/03 02:25:38;;;;;;;10.27;6.70;;;;;;;;;;5030736;28;20120;-57
2022/06/03 02:28:41;;;;;;;8.10;6.07;;;;;;;;;;5024341;28;20057;-52
2022/06/03 02:31:18;;;;;;;9.02;6.90;;;;;;;;;;5015064;28;20493;-59
2022/06/03 02:34:09;;;;;;;9.43;7.00;;;;;;;;;;5032391;28;20034;-55
2022/06/03 02:36:38;;;;;;;10.20;6.80;;;;;;;;;;5033659;28;20045;-54
2022/06/03 02:39:43;;;;;;;12.57;7.25;;;;;;;;;;5033192;28;20025;-57
2022/06/03 02:42:18;;;;;;;10.73;6.53;;;;;;;;;;4985377;28;20140;-56
2022/06/03 02:45:24;;;;;;;9.57;6.93;;;;;;;;;;5031438;28;20044;-57
2022/06/03 02:48:12;;;;;;;8.55;6.90;;;;;;;;;;4991720;28;20037;-54
2022/06/03 02:51:05;;;;;;;8.90;6.85;;;;;;;;;;5004661;28;20045;-55
2022/06/03 02:54:00;;;;;;;9.35;7.03;;;;;;;;;;5030680;28;20064;-57
2022/06/03 02:56:43;;;;;;;8.93;6.82;;;;;;;;;;5029354;28;20115;-56
2022/06/03 02:59:17;;;;;;;9.82;7.10;;;;;;;;;;5031954;28;20045;-59
2022/06/03 03:02:10;;;;;;;9.43;7.43;;;;;;;;;;5028745;28;20076;-57
2022/06/03 03:05:07;;;;;;;9.68;6.95;;;;;;;;;;5031080;28;20032;-56
2022/06/03 03:07:55;;;;;;;9.95;7.20;;;;;;;;;;5016540;28;20038;-54
2022/06/03 03:10:35;;;;;;;9.57;7.07;;;;;;;;;;5025680;28;20116;-56
2022/06/03 03:13:19;;;;;;;10.38;7.07;;;;;;;;;;5027983;28;20335;-56
2022/06/03 03:16:12;;;;;;;9.68;6.88;;;;;;;;;;5031328;28;20034;-54
2022/06/03 03:18:58;;;;;;;9.60;7.00;;;;;;;;;;5012106;28;20033;-53
2022/06/03 03:21:42;;;;;;;11.60;7.70;;;;;;;;;;5012247;28;20052;-55
2022/06/03 03:24:33;;;;;;;10.77;7.25;;;;;;;;;;5004123;28;20136;-55
2022/06/03 03:27:10;;;;;;;12.40;7.72;;;;;;;;;;5030321;28;20042;-55
2022/06/03 03:30:05;;;;;;;10.70;7.53;;;;;;;;;;5024965;28;20036;-54
2022/06/03 03:32:50;;;;;;;10.30;7.28;;;;;;;;;;5012576;28;20045;-53
2022/06/03 03:35:22;;;;;;;10.38;7.38;;;;;;;;;;5021104;28;20105;-56
2022/06/03 03:38:21;;;;;;;11.75;7.43;;;;;;;;;;5021348;28;20389;-54
2022/06/03 03:41:27;;;;;;;10.15;7.43;;;;;;;;;;5028221;28;20041;-55
2022/06/03 03:44:22;;;;;;;9.43;7.30;;;;;;;;;;5029688;28;20064;-56
2022/06/03 03:47:05;;;;;;;11.80;7.50;;;;;;;;;;4987848;28;20625;-54
2022/06/03 03:49:49;;;;;;;8.93;6.70;;;;;;;;;;5026826;28;20049;-56
2022/06/03 03:52:32;;;;;;;9.27;7.28;;;;;;;;;;5031865;28;20140;-59
2022/06/03 03:55:30;;;;;;;11.07;7.50;;;;;;;;;;4993001;28;1117336;-52
2022/06/03 03:58:25;;;;;;;10.50;7.43;;;;;;;;;;5047769;28;20037;-57
2022/06/03 04:01:01;;;;;;;10.10;7.75;;;;;;;;;;5047850;28;20037;-57
2022/06/03 04:03:48;;;;;;;11.43;7.70;;;;;;;;;;5025868;28;20568;-52
2022/06/03 04:06:24;;;;;;;11.38;7.57;;;;;;;;;;5032719;28;20040;-57
2022/06/03 04:08:59;;;;;;;9.60;7.38;;;;;;;;;;5048212;28;20032;-52
2022/06/03 04:12:12;;;;;;;11.10;7.60;;;;;;;;;;5032582;28;20120;-55
2022/06/03 04:14:53;;;;;;;10.48;7.68;;;;;;;;;;4983113;28;20045;-53
2022/06/03 04:17:37;;;;;;;;;;;;;;;;;;5032875;28;20080;-52
2022/06/03 04:20:05;;;;;;;10.00;7.35;;;;;;;;;;5028893;28;19936;-53
2022/06/03 04:23:25;;;;;;;11.18;7.22;;;;;;;;;;5031789;28;20033;-55
2022/06/03 04:26:12;;;;;;;10.15;7.82;;;;;;;;;;5023037;28;20471;-54
2022/06/03 04:28:40;;;;;;;11.18;7.82;;;;;;;;;;5027907;28;21091;-57
2022/06/03 04:31:08;;;;;;;10.65;7.53;;;;;;;;;;5032870;28;20060;-57
2022/06/03 04:34:11;;;;;;;10.57;7.65;;;;;;;;;;5028920;28;20128;-55
2022/06/03 04:36:45;;;;;;;9.80;7.32;;;;;;;;;;5026725;28;20029;-55
2022/06/03 04:39:35;;;;;;;14.18;7.28;;;;;;;;;;5029956;28;20033;-57
2022/06/03 04:42:07;;;;;;;9.73;7.57;;;;;;;;;;5028935;28;20113;-54
2022/06/03 04:44:47;;;;;;;10.43;7.75;;;;;;;;;;5029433;28;20781;-54
2022/06/03 04:47:32;;;;;;;11.85;7.32;;;;;;;;;;5011590;28;20478;-50
2022/06/03 04:50:45;;;;;;;9.88;7.25;;;;;;;;;;5047297;28;20099;-53
2022/06/03 04:53:33;;;;;;;8.63;6.95;;;;;;;;;;4992413;28;20038;-56
2022/06/03 04:56:42;;;;;;;9.23;7.72;;;;;;;;;;5013043;28;20072;-52
2022/06/03 04:59:47;;;;;;;9.85;7.70;;;;;;;;;;5012844;28;20068;-55
2022/06/03 05:02:18;;;;;;;9.68;7.28;;;;;;;;;;5011820;28;20037;-55
2022/06/03 05:05:18;;;;;;;11.30;7.72;;;;;;;;;;5030232;28;20034;-53
2022/06/03 05:08:02;;;;;;;11.77;7.97;;;;;;;;;;5046264;28;20030;-53
2022/06/03 05:10:55;;;;;;;9.68;7.07;;;;;;;;;;5029284;28;20033;-54
2022/06/03 05:13:24;;;;;;;10.93;7.07;;;;;;;;;;5013598;28;20029;-53
2022/06/03 05:16:20;;;;;;;8.35;6.43;;;;;;;;;;5040261;28;20053;-62
2022/06/03 05:18:52;;;;;;;11.63;6.80;;;;;;;;;;5031439;28;20116;-60
2022/06/03 05:21:40;;;;;;;10.73;6.72;;;;;;;;;;5020475;28;20021;-60
2022/06/03 05:24:30;;;;;;;9.18;6.75;;;;;;;;;;5014319;28;20048;-64
2022/06/03 05:27:01;;;;;;;11.77;6.97;;;;;;;;;;5047568;28;20027;-65
2022/06/03 05:30:18;;;;;;;8.90;6.28;;;;;;;;;;5030317;28;20046;-65
2022/06/03 05:33:02;;;;;;;9.95;6.82;;;;;;;;;;5030596;28;20038;-65
2022/06/03 05:35:52;;;;;;;8.63;6.32;;;;;;;;;;5043098;28;20040;-65
2022/06/03 05:38:45;;;;;;;8.73;6.43;;;;;;;;;;5021945;28;20044;-62
2022/06/03 05:44:44;;;;;;;10.02;6.53;;;;;;;;;;5030982;28;20052;-62
2022/06/03 05:47:24;;;;;;;9.25;6.60;;;;;;;;;;5013522;28;20164;-61
2022/06/03 05:50:11;;;;;;;9.43;6.67;;;;;;;;;;5011538;28;20026;-65
2022/06/03 05:53:17;;;;;;;11.80;6.10;;;;;;;;;;5044566;28;20040;-62
2022/06/03 05:55:55;;;;;;;8.82;6.50;;;;;;;;;;5020128;28;20072;-63
2022/06/03 05:58:58;;;;;;;8.25;5.72;;;;;;;;;;5010887;28;20390;-61
2022/06/03 06:02:01;;;;;;;15.15;6.28;;;;;;;;;;4999823;28;20034;-63
2022/06/03 06:04:47;;;;;;;9.38;6.43;;;;;;;;;;5010269;28;20124;-63
2022/06/03 06:08:06;;;;;;;8.93;6.32;;;;;;;;;;5009678;28;20037;-66
2022/06/03 06:11:05;;;;;;;12.40;6.90;;;;;;;;;;4986509;28;20033;-63
2022/06/03 06:14:04;;;;;;;12.07;6.93;;;;;;;;;;5000294;28;20037;-63
2022/06/03 06:16:47;;;;;;;11.93;6.80;;;;;;;;;;5001301;28;20038;-63
2022/06/03 06:19:35;;;;;;;8.18;6.55;;;;;;;;;;5031713;28;20113;-66
2022/06/03 06:22:25;;;;;;;11.07;6.32;;;;;;;;;;5010365;28;20049;-64
2022/06/03 06:25:06;;;;;;;10.10;6.70;;;;;;;;;;5035029;28;20113;-64
2022/06/03 06:27:54;;;;;;;9.27;5.70;;;;;;;;;;5013257;28;20033;-65
2022/06/03 06:30:39;;;;;;;9.00;6.10;;;;;;;;;;5012776;28;20037;-62
2022/06/03 06:33:47;;;;;;;8.27;5.85;;;;;;;;;;5045768;28;20433;-64
2022/06/03 06:36:31;;;;;;;11.85;6.00;;;;;;;;;;5012274;28;20045;-61
2022/06/03 06:39:29;;;;;;;6.78;5.45;;;;;;;;;;5031533;28;20117;-61
2022/06/03 06:42:04;;;;;;;6.85;5.10;;;;;;;;;;5018931;28;20037;-66
2022/06/03 06:44:37;;;;;;;6.63;5.22;;;;;;;;;;5030908;28;20041;-64
2022/06/03 06:47:18;;;;;;;9.00;5.55;;;;;;;;;;5022198;28;20034;-60
2022/06/03 06:50:13;;;;;;;6.65;5.43;;;;;;;;;;5011194;28;20036;-59
2022/06/03 06:52:51;;;;;;;8.25;5.78;;;;;;;;;;5010911;28;20029;-59
2022/06/03 06:55:37;;;;;;;8.40;5.25;;;;;;;;;;5031931;28;20045;-59
2022/06/03 06:58:09;;;;;;;7.05;5.10;;;;;;;;;;5030123;28;20100;-59
2022/06/03 07:00:42;;;;;;;6.00;4.95;;;;;;;;;;4997567;28;20042;-61
2022/06/03 07:03:39;;;;;;;9.25;5.10;;;;;;;;;;4980697;28;20041;-60
2022/06/03 07:06:20;;;;;;;7.97;4.85;;;;;;;;;;4993772;28;20026;-60
2022/06/03 07:08:57;;;;;;;6.60;4.80;;;;;;;;;;5023512;28;20041;-60
2022/06/03 07:11:30;;;;;;;6.25;4.65;;;;;;;;;;5014869;28;20038;-60
2022/06/03 07:14:07;;;;;;;6.88;4.90;;;;;;;;;;5025226;28;20065;-61
2022/06/03 07:19:56;;;;;;;8.75;4.40;;;;;;;;;;5011336;28;20044;-60
2022/06/03 07:22:39;;;;;;;7.18;5.10;;;;;;;;;;4996916;28;20034;-61
2022/06/03 07:25:35;;;;;;;7.63;5.00;;;;;;;;;;5014777;28;20030;-61
2022/06/03 07:28:03;;;;;;;7.13;4.80;;;;;;;;;;5014548;28;20038;-61
2022/06/03 07:30:47;;;;;;;9.45;4.55;;;;;;;;;;5011589;28;20065;-60
2022/06/03 07:33:34;;;;;;;7.30;4.65;;;;;;;;;;5013765;28;20394;-61
2022/06/03 07:36:13;;;;;;;6.50;4.70;;;;;;;;;;4996940;28;20022;-61
2022/06/03 07:38:56;;;;;;;5.60;4.65;;;;;;;;;;5028780;28;20088;-61
2022/06/03 07:41:38;;;;;;;7.75;4.40;;;;;;;;;;4999306;28;20474;-61
2022/06/03 07:44:27;;;;;;;7.53;4.32;;;;;;;;;;4996849;28;20044;-61
2022/06/03 07:47:00;;;;;;;5.15;4.25;;;;;;;;;;5008877;28;20030;-61
2022/06/03 07:49:29;;;;;;;7.70;4.50;;;;;;;;;;5003552;28;20034;-60
2022/06/03 07:52:03;;;;;;;7.03;4.28;;;;;;;;;;5022423;28;20037;-62
2022/06/03 07:54:34;;;;;;;6.10;4.13;;;;;;;;;;5003067;28;20129;-60
2022/06/03 07:57:09;;;;;;;6.38;3.90;;;;;;;;;;5004989;28;20140;-60
2022/06/03 07:59:37;;;;;;;6.43;4.15;;;;;;;;;;4989950;28;20376;-60
2022/06/03 08:02:11;;;;;;;6.32;4.00;;;;;;;;;;5024692;28;20034;-60
2022/06/03 08:04:38;;;;;;;6.60;4.40;;;;;;;;;;5008563;28;20042;-61
2022/06/03 08:12:59;;;;;;;8.43;4.53;;;;;;;;;;5010718;28;20069;-61
2022/06/03 08:15:33;;;;;;;7.80;4.40;;;;;;;;;;5028327;28;20108;-61
2022/06/03 08:18:02;;;;;;;5.65;4.55;;;;;;;;;;5012738;28;20038;-61
2022/06/03 08:20:29;;;;;;;7.30;4.45;;;;;;;;;;4993998;28;20038;-60
2022/06/03 08:22:55;;;;;;;6.40;4.40;;;;;;;;;;4975696;28;20038;-61
2022/06/03 08:25:27;;;;;;;7.57;4.57;;;;;;;;;;5010788;28;20037;-61
2022/06/03 08:27:56;;;;;;;9.45;4.22;;;;;;;;;;5012471;28;20029;-62
2022/06/03 08:30:27;;;;;;;4.45;3.75;;;;;;;;;;5023479;28;20079;-60
2022/06/03 08:33:04;;;;;;;5.07;4.25;;;;;;;;;;5012347;28;20053;-60
2022/06/03 08:35:36;;;;;;;6.10;4.85;;;;;;;;;;4990721;28;20042;-60
2022/06/03 08:38:45;;;;;;;6.53;4.45;;;;;;;;;;5002864;28;20096;-61
2022/06/03 08:41:38;;;;;;;6.40;4.00;;;;;;;;;;4997432;28;20045;-60
2022/06/03 08:44:20;;;;;;;7.68;4.82;;;;;;;;;;4995595;28;20031;-61
2022/06/03 08:47:20;;;;;;;6.40;4.50;;;;;;;;;;4988151;28;20045;-61
2022/06/03 08:50:03;;;;;;;5.82;4.40;;;;;;;;;;4999232;28;20092;-60
2022/06/03 08:52:44;;;;;;;5.43;4.30;;;;;;;;;;4993253;28;20026;-60
2022/06/03 08:55:39;;;;;;;5.68;4.03;;;;;;;;;;4994067;28;20064;-61
2022/06/03 08:58:44;;;;;;;6.07;4.15;;;;;;;;;;4982765;28;20046;-61
2022/06/03 09:01:48;;;;;;;6.53;4.20;;;;;;;;;;5002964;28;20061;-60
2022/06/03 09:04:25;;;;;;;6.22;4.25;;;;;;;;;;4991904;28;20048;-61
2022/06/03 09:07:25;;;;;;;7.53;4.97;;;;;;;;;;4987716;28;20425;-61
2022/06/03 09:09:57;;;;;;;6.43;4.95;;;;;;;;;;5008254;28;20109;-61
2022/06/03 09:12:28;;;;;;;7.18;4.53;;;;;;;;;;5011619;28;20108;-63
2022/06/03 09:15:11;;;;;;;5.70;3.70;;;;;;;;;;5011159;28;20053;-60
2022/06/03 09:17:42;;;;;;;6.22;4.20;;;;;;;;;;4999082;28;20173;-61
2022/06/03 09:20:15;;;;;;;5.95;4.30;;;;;;;;;;5011336;28;20033;-60
2022/06/03 09:22:44;;;;;;;7.53;4.82;;;;;;;;;;4992099;28;20083;-61
2022/06/03 09:25:12;;;;;;;6.53;4.25;;;;;;;;;;4996101;28;20062;-60
2022/06/03 09:27:39;;;;;;;4.85;3.90;;;;;;;;;;4989485;28;20030;-60
2022/06/03 09:30:06;;;;;;;6.78;4.10;;;;;;;;;;5027245;28;20034;-60
2022/06/03 09:32:41;;;;;;;5.45;4.18;;;;;;;;;;5010012;28;20109;-60
2022/06/03 09:35:13;;;;;;;6.22;4.40;;;;;;;;;;4994348;28;20038;-60
2022/06/03 09:37:44;;;;;;;5.43;3.72;;;;;;;;;;5004736;28;20027;-59
2022/06/03 09:40:18;;;;;;;6.03;3.47;;;;;;;;;;4959131;28;20038;-60
2022/06/03 09:43:14;;;;;;;5.90;4.05;;;;;;;;;;4998484;28;20494;-59
2022/06/03 09:45:40;;;;;;;4.82;3.38;;;;;;;;;;4992349;28;20038;-60
2022/06/03 09:48:09;;;;;;;4.95;3.17;;;;;;;;;;5010969;28;20088;-59
2022/06/03 09:50:35;;;;;;;6.35;2.70;;;;;;;;;;5010237;28;20113;-59
2022/06/03 09:53:05;;;;;;;3.70;2.50;;;;;;;;;;4994322;28;20488;-60
2022/06/03 09:55:40;;;;;;;3.92;2.92;;;;;;;;;;5006420;28;20057;-60
2022/06/03 09:58:11;;;;;;;4.45;2.80;;;;;;;;;;5010444;28;20121;-61
2022/06/03 10:00:43;;;;;;;3.88;2.90;;;;;;;;;;4988467;28;20038;-59
2022/06/03 10:03:10;;;;;;;4.55;2.50;;;;;;;;;;4980260;28;20061;-62
2022/06/03 10:05:36;;;;;;;3.47;2.50;;;;;;;;;;4993246;28;20383;-61
2022/06/03 10:08:07;;;;;;;3.75;2.40;;;;;;;;;;5026507;28;20042;-63
2022/06/03 10:13:18;;;;;;;4.90;2.50;;;;;;;;;;5009144;28;20041;-59
2022/06/03 10:16:03;;;;;;;3.90;2.78;;;;;;;;;;5026270;28;20022;-59
2022/06/03 10:18:49;;;;;;;4.70;2.40;;;;;;;;;;5009846;28;20038;-59
2022/06/03 10:21:14;;;;;;;4.15;2.70;;;;;;;;;;4997149;28;20057;-59
2022/06/03 10:23:52;;;;;;;3.30;2.50;;;;;;;;;;5027762;28;20037;-59
2022/06/03 10:26:24;;;;;;;4.05;2.30;;;;;;;;;;5015414;28;20042;-59
2022/06/03 10:28:51;;;;;;;4.07;2.40;;;;;;;;;;5012459;28;20084;-59
2022/06/03 10:31:21;;;;;;;5.15;2.20;;;;;;;;;;4997113;28;20026;-57
2022/06/03 10:33:57;;;;;;;2.90;2.40;;;;;;;;;;5013307;28;20045;-62
2022/06/03 10:36:29;;;;;;;4.80;2.45;;;;;;;;;;4997501;28;20044;-61
2022/06/03 10:38:55;;;;;;;2.85;2.20;;;;;;;;;;5023587;28;20115;-61
2022/06/03 10:41:31;;;;;;;2.95;2.40;;;;;;;;;;5028795;28;20083;-62
2022/06/03 10:43:57;;;;;;;5.50;2.30;;;;;;;;;;5004257;28;20102;-60
2022/06/03 10:46:23;;;;;;;3.45;2.38;;;;;;;;;;5014900;28;20030;-59
2022/06/03 10:48:51;;;;;;;4.47;2.40;;;;;;;;;;5010883;28;20034;-60
2022/06/03 11:02:36;;;;;;;2.70;2.17;;;;;;;;;;5013248;28;20033;-63
2022/06/03 11:05:23;;;;;;;3.88;1.92;;;;;;;;;;5013890;28;20038;-63
2022/06/03 11:08:07;;;;;;;3.42;2.00;;;;;;;;;;5011534;28;20108;-62
2022/06/03 11:10:45;;;;;;;2.95;2.10;;;;;;;;;;5012462;28;20037;-63
2022/06/03 11:13:27;;;;;;;2.88;2.00;;;;;;;;;;5013529;28;20045;-61
2022/06/03 11:15:52;;;;;;;2.78;1.90;;;;;;;;;;5012791;28;20034;-62
2022/06/03 11:18:27;;;;;;;2.90;2.13;;;;;;;;;;5027804;28;20084;-63
2022/06/03 11:20:54;;;;;;;4.13;2.53;;;;;;;;;;5006285;28;21039;-63
2022/06/03 11:23:20;;;;;;;5.15;1.98;;;;;;;;;;5014430;28;20489;-63
2022/06/03 11:25:48;;;;;;;2.58;1.92;;;;;;;;;;5013285;28;20135;-64
2022/06/03 11:28:28;;;;;;;2.97;1.90;;;;;;;;;;5012866;28;20037;-63
2022/06/03 11:31:01;;;;;;;4.60;2.10;;;;;;;;;;4997674;28;20038;-63
2022/06/03 11:33:46;;;;;;;2.75;2.15;;;;;;;;;;5013945;28;20044;-63
2022/06/03 11:36:20;;;;;;;2.42;1.73;;;;;;;;;;5012923;28;20425;-64
2022/06/03 11:39:00;;;;;;;3.30;1.80;;;;;;;;;;5019928;28;20045;-63
2022/06/03 11:41:30;;;;;;;3.28;1.77;;;;;;;;;;5013897;28;20030;-64
2022/06/03 11:44:11;;;;;;;2.43;1.80;;;;;;;;;;5013164;28;20217;-64
2022/06/03 11:46:48;;;;;;;4.82;1.80;;;;;;;;;;5009654;28;20042;-62
2022/06/03 11:49:18;;;;;;;2.80;1.98;;;;;;;;;;5009692;28;20038;-62
2022/06/03 11:51:45;;;;;;;2.22;2.03;;;;;;;;;;5013426;28;20032;-65
2022/06/03 11:54:14;;;;;;;4.72;2.08;;;;;;;;;;5025690;28;20121;-64
2022/06/03 11:56:41;;;;;;;4.70;1.90;;;;;;;;;;5015933;28;20548;-63
2022/06/03 11:59:18;;;;;;;2.20;1.80;;;;;;;;;;5012450;28;20173;-64
2022/06/03 12:01:53;;;;;;;2.28;1.60;;;;;;;;;;5011813;28;20068;-62
2022/06/03 12:04:27;;;;;;;5.25;1.75;;;;;;;;;;5010199;28;20058;-62
2022/06/03 12:06:59;;;;;;;2.20;1.60;;;;;;;;;;5006758;28;20661;-62
2022/06/03 12:10:07;;;;;;;1.90;1.70;;;;;;;;;;5011956;28;20030;-64
2022/06/03 12:15:26;;;;;;;3.00;1.60;;;;;;;;;;5013235;28;20061;-63
2022/06/03 12:17:51;;;;;;;3.08;1.60;;;;;;;;;;5011518;28;20161;-63
2022/06/03 12:20:36;;;;;;;2.55;1.73;;;;;;;;;;5009923;28;20030;-62
2022/06/03 12:23:11;;;;;;;3.83;1.60;;;;;;;;;;5008036;28;20076;-64
2022/06/03 12:25:57;;;;;;;2.70;1.63;;;;;;;;;;5012265;28;20487;-63
2022/06/03 12:28:37;;;;;;;4.72;1.58;;;;;;;;;;5011377;28;20129;-63
2022/06/03 12:31:34;;;;;;;2.92;1.67;;;;;;;;;;5010257;28;20042;-64
2022/06/03 12:34:27;;;;;;;4.93;1.77;;;;;;;;;;5005792;28;20045;-62
2022/06/03 12:37:01;;;;;;;2.25;1.70;;;;;;;;;;5002479;28;20041;-63
2022/06/03 12:40:00;;;;;;;4.47;2.10;;;;;;;;;;5008240;28;20033;-63
2022/06/03 12:42:26;;;;;;;3.50;1.77;;;;;;;;;;5004298;28;20042;-62
2022/06/03 12:45:14;;;;;;;4.35;1.80;;;;;;;;;;5011804;28;20084;-63
2022/06/03 12:47:48;;;;;;;1.95;1.50;;;;;;;;;;5010946;28;20383;-62
2022/06/03 12:50:33;;;;;;;2.65;1.75;;;;;;;;;;5011494;28;20037;-62
2022/06/03 12:53:17;;;;;;;2.17;1.50;;;;;;;;;;5009329;28;20550;-62
2022/06/03 12:55:44;;;;;;;2.70;1.60;;;;;;;;;;5010133;28;20058;-63
2022/06/03 12:58:24;;;;;;;1.92;1.60;;;;;;;;;;5019692;28;20065;-61
2022/06/03 13:00:57;;;;;;;;;;;;;;;;;;5012930;28;20032;-59
2022/06/03 13:03:22;;;;;;;4.40;1.60;;;;;;;;;;5011783;28;19925;-58
2022/06/03 13:05:56;;;;;;;4.15;1.70;;;;;;;;;;5003238;28;20091;-59
2022/06/03 13:08:28;;;;;;;3.88;1.70;;;;;;;;;;4992300;28;20038;-61
2022/06/03 13:11:12;;;;;;;3.17;1.90;;;;;;;;;;5011908;28;20038;-61
2022/06/03 13:14:02;;;;;;;5.60;1.67;;;;;;;;;;5025541;28;20030;-60
2022/06/03 13:16:37;;;;;;;1.92;1.60;;;;;;;;;;4973110;28;20115;-59
2022/06/03 13:19:17;;;;;;;2.63;1.92;;;;;;;;;;5009484;28;20374;-63
2022/06/03 13:21:58;;;;;;;1.98;1.80;;;;;;;;;;4978116;28;20092;-61
2022/06/03 13:24:30;;;;;;;1.60;1.50;;;;;;;;;;5009754;28;20044;-59
2022/06/03 13:27:29;;;;;;;3.33;1.77;;;;;;;;;;5010221;28;20037;-60
2022/06/03 13:29:57;;;;;;;3.60;1.90;;;;;;;;;;5010838;28;20041;-59
2022/06/03 13:32:34;;;;;;;2.30;1.80;;;;;;;;;;5012338;28;20036;-59
2022/06/03 13:35:15;;;;;;;3.47;1.95;;;;;;;;;;5011587;28;20382;-59
2022/06/03 13:37:45;;;;;;;4.30;2.10;;;;;;;;;;5010262;28;20076;-61
2022/06/03 13:40:38;;;;;;;3.35;1.98;;;;;;;;;;4992410;28;20053;-60
2022/06/03 13:43:22;;;;;;;2.90;1.83;;;;;;;;;;4989956;28;20088;-60
2022/06/03 13:45:52;;;;;;;5.32;1.80;;;;;;;;;;4991799;28;20467;-60
2022/06/03 13:48:34;;;;;;;4.18;1.90;;;;;;;;;;4998059;28;20104;-60
2022/06/03 13:51:36;;;;;;;2.90;1.90;;;;;;;;;;5011194;28;20096;-60
2022/06/03 13:54:51;;;;;;;3.10;2.22;;;;;;;;;;5013930;28;20044;-60
2022/06/03 13:57:22;;;;;;;2.65;1.90;;;;;;;;;;4989270;28;20050;-59
2022/06/03 13:59:48;;;;;;;4.07;2.42;;;;;;;;;;5011052;28;20037;-60
2022/06/03 14:02:39;;;;;;;3.83;2.40;;;;;;;;;;5014886;28;20026;-60
2022/06/03 14:05:08;;;;;;;3.28;2.40;;;;;;;;;;5015221;28;20530;-60
2022/06/03 14:07:45;;;;;;;2.53;2.20;;;;;;;;;;5013962;28;20033;-59
2022/06/03 14:10:19;;;;;;;2.47;2.05;;;;;;;;;;4996550;28;20072;-59
2022/06/03 14:13:00;;;;;;;3.75;2.15;;;;;;;;;;5002274;28;20526;-59
2022/06/03 14:15:50;;;;;;;3.45;2.30;;;;;;;;;;5013619;28;20644;-60
2022/06/03 14:18:57;;;;;;;2.92;2.17;;;;;;;;;;5015510;28;20056;-60
2022/06/03 14:21:46;;;;;;;4.35;2.20;;;;;;;;;;5014988;28;20046;-61
2022/06/03 14:24:20;;;;;;;4.28;2.22;;;;;;;;;;5014081;28;20049;-61
2022/06/03 14:26:45;;;;;;;4.32;2.20;;;;;;;;;;5014897;28;20117;-60
2022/06/03 14:29:41;;;;;;;6.63;2.53;;;;;;;;;;5013361;28;20148;-59
2022/06/03 14:32:11;;;;;;;6.85;2.42;;;;;;;;;;5014084;28;20040;-59
2022/06/03 14:34:56;;;;;;;2.85;2.35;;;;;;;;;;5014574;28;20144;-60
2022/06/03 14:37:43;;;;;;;3.88;2.50;;;;;;;;;;5007558;28;20040;-60
2022/06/03 14:40:15;;;;;;;4.93;2.50;;;;;;;;;;4995535;28;20042;-59
2022/06/03 14:42:43;;;;;;;2.65;2.30;;;;;;;;;;5006312;28;20038;-60
2022/06/03 14:45:13;;;;;;;2.97;2.22;;;;;;;;;;5013507;28;20095;-60
2022/06/03 14:47:44;;;;;;;5.63;2.60;;;;;;;;;;5012481;28;20414;-59
2022/06/03 14:50:19;;;;;;;3.80;2.30;;;;;;;;;;5012235;28;20038;-59
2022/06/03 14:53:06;;;;;;;3.47;2.40;;;;;;;;;;5012860;28;20033;-60
2022/06/03 14:55:45;;;;;;;3.75;2.40;;;;;;;;;;5014463;28;20504;-60
2022/06/03 14:58:31;;;;;;;2.33;2.13;;;;;;;;;;5013107;28;20110;-60
2022/06/03 15:01:05;;;;;;;2.30;2.10;;;;;;;;;;4994258;28;20283;-59
2022/06/03 15:03:33;;;;;;;3.38;2.25;;;;;;;;;;5026998;28;20030;-60
2022/06/03 15:06:08;;;;;;;3.10;2.40;;;;;;;;;;5003935;28;20121;-59
2022/06/03 15:09:00;;;;;;;3.28;2.30;;;;;;;;;;5014013;28;20041;-59
2022/06/03 15:11:45;;;;;;;3.95;2.40;;;;;;;;;;5014630;28;20390;-59
2022/06/03 15:14:20;;;;;;;3.95;2.30;;;;;;;;;;5012651;28;20077;-60
2022/06/03 15:16:54;;;;;;;3.97;2.38;;;;;;;;;;5010483;28;20034;-60
2022/06/03 15:19:42;;;;;;;4.88;2.35;;;;;;;;;;5010665;28;20029;-60
2022/06/03 15:22:29;;;;;;;2.40;2.20;;;;;;;;;;5014782;28;20036;-61
2022/06/03 15:25:15;;;;;;;4.90;2.60;;;;;;;;;;5009572;28;20033;-61
2022/06/03 15:27:48;;;;;;;4.72;2.33;;;;;;;;;;4993276;28;20042;-61
2022/06/03 15:30:26;;;;;;;4.85;2.40;;;;;;;;;;5013242;28;20061;-59
2022/06/03 15:32:52;;;;;;;3.10;2.50;;;;;;;;;;5008645;28;20116;-61
2022/06/03 15:35:26;;;;;;;2.83;2.50;;;;;;;;;;5025579;28;20430;-59
2022/06/03 15:37:52;;;;;;;2.50;2.30;;;;;;;;;;5013431;28;20133;-60
2022/06/03 15:40:27;;;;;;;3.60;2.90;;;;;;;;;;5019090;28;20450;-59
2022/06/03 15:42:54;;;;;;;6.47;2.50;;;;;;;;;;5015176;28;20554;-59
2022/06/03 15:45:41;;;;;;;2.47;2.20;;;;;;;;;;5009565;28;20037;-59
2022/06/03 15:48:14;;;;;;;6.20;2.45;;;;;;;;;;5008262;28;20087;-59
2022/06/03 15:51:03;;;;;;;5.55;3.00;;;;;;;;;;4989423;28;20383;-60
2022/06/03 15:53:35;;;;;;;3.38;2.60;;;;;;;;;;5004022;28;20546;-59
2022/06/03 15:56:19;;;;;;;3.28;2.53;;;;;;;;;;5012985;28;20037;-60
2022/06/03 15:58:56;;;;;;;6.03;4.80;;;;;;;;;;5011719;28;20049;-60
2022/06/03 16:01:36;;;;;;;3.83;2.50;;;;;;;;;;4996101;28;20052;-60
2022/06/03 16:04:01;;;;;;;;;;;;;;;;;;5013002;28;20172;-60
2022/06/03 16:06:40;;;;;;;4.20;3.03;;;;;;;;;;5013870;28;20368;-60
2022/06/03 16:09:37;;;;;;;4.80;2.30;;;;;;;;;;5004802;28;20122;-60
2022/06/03 16:12:22;;;;;;;2.80;2.30;;;;;;;;;;4943797;28;20046;-59
2022/06/03 16:15:01;;;;;;;5.40;2.90;;;;;;;;;;5013749;28;20121;-59
2022/06/03 16:17:37;;;;;;;2.93;2.60;;;;;;;;;;5011307;28;20038;-59
2022/06/03 16:20:14;;;;;;;4.57;2.30;;;;;;;;;;5010410;28;20033;-59
2022/06/03 16:23:14;;;;;;;4.78;3.38;;;;;;;;;;4993732;28;20039;-59
2022/06/03 16:25:52;;;;;;;7.47;5.43;;;;;;;;;;5005720;28;20025;-59
2022/06/03 16:28:37;;;;;;;3.45;2.40;;;;;;;;;;5013021;28;20042;-58
2022/06/03 16:31:17;;;;;;;2.63;2.40;;;;;;;;;;5010370;28;20045;-59
2022/06/03 16:34:04;;;;;;;;;;;;;;;;;;5026661;28;20033;-60
2022/06/03 16:36:35;;;;;;;2.70;2.50;;;;;;;;;;5024744;28;20008;-59
2022/06/03 16:39:07;;;;;;;3.03;2.38;;;;;;;;;;4994439;28;20029;-60